Andover, New Hampshire
Current Conditions -  °F | °C
As of 5:15 PM on Wednesday 28 Jan 2015 (Local Time) from KLCI Reporting Station
Clear Clear  
Wind Chill: 13°   Ceiling: Unl
Heat Index: 19°   Visibility: 10mi
Dew Point:   Wind: 5mph
Humidity: 54%   Direction: 280°W
Pressure: 30.04"   Gusts: NA
Location:  43.44°N, 71.82°W
Report Text: KLCI 282215Z AUTO 28004KT 10SM CLR M07/M15 A3004 RMK AO1
Loading
Personal Weather Stations






























Interactive Weather Map New forecast layout! Learn more

10-Day Weather Forecast

Advertisements
Track Severe Weather on mobile